Time;durP1;ratioP1;P1;durP2;ratioP2;P2;SDS_P1;SDS_P2;PMS_P1;PMS_P2;Temp;Humidity;BMP_temperature;BMP_pressure;BME280_temperature;BME280_humidity;BME280_pressure;Samples;Min_cycle;Max_cycle;Signal;HPM_P1;HPM_P2
2022/08/23 00:01:07;;;;;;;2.42;1.80;;;;;;;-144.47;100.00;61586.06;5012255;28;20025;-89
2022/08/23 00:03:33;;;;;;;2.17;1.63;;;;;;;-144.47;100.00;61586.06;5020371;28;20054;-88
2022/08/23 00:06:00;;;;;;;2.63;1.60;;;;;;;-144.47;100.00;61586.06;5021892;28;20068;-86
2022/08/23 00:08:28;;;;;;;2.90;1.77;;;;;;;-144.47;100.00;61586.06;5017779;28;20148;-86
2022/08/23 00:10:54;;;;;;;3.58;1.75;;;;;;;-144.47;100.00;61586.06;5014927;28;20050;-88
2022/08/23 00:13:21;;;;;;;2.03;1.73;;;;;;;-144.47;100.00;61586.06;5008355;28;20117;-88
2022/08/23 00:15:46;;;;;;;1.80;1.70;;;;;;;-144.47;100.00;61586.06;4998492;28;20026;-89
2022/08/23 00:18:17;;;;;;;3.58;1.50;;;;;;;-144.47;100.00;61586.06;5000322;28;20077;-87
2022/08/23 00:20:43;;;;;;;;;;;;;;;-144.47;100.00;61586.06;5008271;28;20038;-87
2022/08/23 00:23:09;;;;;;;2.75;1.85;;;;;;;-144.47;100.00;61586.06;5003665;28;19917;-87
2022/08/23 00:25:34;;;;;;;3.03;1.90;;;;;;;104.25;100.00;61586.06;5005898;28;20109;-88
2022/08/23 00:28:00;;;;;;;3.10;1.90;;;;;;;-144.47;100.00;61586.06;5004533;28;20048;-87
2022/08/23 00:30:26;;;;;;;3.08;1.90;;;;;;;104.25;100.00;61586.06;5007922;28;20038;-85
2022/08/23 00:32:52;;;;;;;5.30;2.10;;;;;;;104.25;100.00;61586.06;5016506;28;20042;-84
2022/08/23 00:35:19;;;;;;;2.05;1.95;;;;;;;104.25;100.00;61586.06;5012095;28;20070;-87
2022/08/23 00:37:46;;;;;;;2.05;1.88;;;;;;;104.25;100.00;61586.06;5012633;28;20030;-86
2022/08/23 00:40:14;;;;;;;3.13;2.13;;;;;;;104.25;100.00;61586.06;5013650;28;20398;-87
2022/08/23 00:48:27;;;;;;;2.13;2.03;;;;;;;22.70;100.00;83180.34;5014744;28;20066;-91
2022/08/23 00:51:01;;;;;;;2.65;2.00;;;;;;;104.25;100.00;61586.06;5018945;28;20041;-88
2022/08/23 00:53:31;;;;;;;1.85;1.70;;;;;;;104.25;100.00;61586.06;5024468;28;20383;-89
2022/08/23 00:55:58;;;;;;;;;;;;;;;104.25;100.00;61586.06;5019898;28;20034;-87
2022/08/23 00:58:25;;;;;;;2.97;2.03;;;;;;;104.25;100.00;61586.06;5021573;28;19945;-88
2022/08/23 01:00:53;;;;;;;3.20;2.08;;;;;;;104.25;100.00;61586.06;5027263;28;20073;-88
2022/08/23 01:03:21;;;;;;;3.95;2.40;;;;;;;31.63;100.00;61586.06;5016822;28;20077;-87
2022/08/23 01:06:09;;;;;;;4.13;2.53;;;;;;;104.25;100.00;61586.06;5023642;28;20041;-88
2022/08/23 01:08:37;;;;;;;3.40;2.55;;;;;;;104.25;100.00;61586.06;4995103;28;20057;-86
2022/08/23 01:11:10;;;;;;;6.93;2.88;;;;;;;-144.47;100.00;61586.06;5006149;28;20041;-85
2022/08/23 01:13:41;;;;;;;6.38;3.30;;;;;;;104.25;100.00;61586.06;5003515;28;20454;-89
2022/08/23 01:16:15;;;;;;;4.32;2.83;;;;;;;-144.47;100.00;61586.06;5003486;28;20125;-90
2022/08/23 01:18:42;;;;;;;3.60;2.15;;;;;;;42.00;100.00;61586.06;5003076;28;20034;-91
2022/08/23 01:21:12;;;;;;;3.00;2.20;;;;;;;104.25;100.00;61586.06;5005826;28;20403;-89
2022/08/23 01:23:43;;;;;;;4.43;1.92;;;;;;;104.25;100.00;61586.06;5001081;28;20034;-89
2022/08/23 01:26:10;;;;;;;4.15;2.17;;;;;;;22.15;100.00;61586.06;5008333;28;20046;-89
2022/08/23 01:28:39;;;;;;;2.38;2.17;;;;;;;104.25;100.00;61586.06;4991524;28;20026;-89
2022/08/23 01:31:06;;;;;;;2.88;1.80;;;;;;;104.25;100.00;61586.06;5009407;28;20046;-89
2022/08/23 01:33:32;;;;;;;2.60;2.40;;;;;;;-144.47;100.00;61586.06;4999308;28;20042;-90
2022/08/23 01:35:58;;;;;;;2.30;2.10;;;;;;;104.25;100.00;61586.06;5001264;28;20378;-88
2022/08/23 01:38:26;;;;;;;3.50;1.92;;;;;;;104.25;100.00;61586.06;5002245;28;20022;-88
2022/08/23 01:40:52;;;;;;;4.82;2.75;;;;;;;-144.47;100.00;61586.06;5005138;28;20033;-87
2022/08/23 01:43:20;;;;;;;2.80;2.00;;;;;;;104.25;100.00;61586.06;5004165;28;20045;-87
2022/08/23 01:45:49;;;;;;;1.77;1.67;;;;;;;62.74;100.00;61586.06;5004187;28;20026;-87
2022/08/23 01:48:17;;;;;;;3.05;1.70;;;;;;;-144.47;100.00;61586.06;5019304;28;20042;-87
2022/08/23 01:50:44;;;;;;;3.05;2.10;;;;;;;104.25;100.00;61586.06;4990140;28;20026;-88
2022/08/23 01:53:11;;;;;;;2.05;1.85;;;;;;;26.45;100.00;61586.06;5005114;28;20120;-88
2022/08/23 01:55:42;;;;;;;2.00;1.80;;;;;;;-144.47;100.00;61586.06;5023636;28;20065;-88
2022/08/23 01:58:08;;;;;;;3.67;2.10;;;;;;;-144.47;100.00;61586.06;5005295;28;20042;-88
2022/08/23 02:00:38;;;;;;;2.55;2.33;;;;;;;-144.47;100.00;61586.06;5005274;28;20034;-88
2022/08/23 02:03:06;;;;;;;4.03;2.22;;;;;;;21.51;100.00;61586.06;5006200;28;20486;-89
2022/08/23 02:05:36;;;;;;;7.82;2.03;;;;;;;-144.47;100.00;61586.06;4999871;28;20039;-89
2022/08/23 02:08:59;;;;;;;2.33;2.13;;;;;;;-144.47;100.00;61586.06;5007319;28;20030;-90
2022/08/23 02:10:51;;;;;;;3.60;2.65;;;;;;;-144.47;100.00;61586.06;5019436;28;20037;-87
2022/08/23 02:13:18;;;;;;;3.63;2.80;;;;;;;-144.47;100.00;61586.06;5002713;28;20034;-92
2022/08/23 02:15:48;;;;;;;2.85;2.65;;;;;;;-144.47;100.00;61586.06;4985861;28;20490;-89
2022/08/23 02:18:14;;;;;;;2.60;2.40;;;;;;;-144.47;100.00;61586.06;5006096;28;20053;-91
2022/08/23 02:20:50;;;;;;;5.78;2.90;;;;;;;-144.47;100.00;61586.06;5005358;28;20034;-90
2022/08/23 02:23:17;;;;;;;3.22;2.78;;;;;;;21.17;100.00;61586.06;5006639;28;20406;-90
2022/08/23 02:25:43;;;;;;;4.15;2.83;;;;;;;-144.47;100.00;61586.06;4989041;28;20425;-92
2022/08/23 02:28:10;;;;;;;3.90;3.30;;;;;;;-144.47;100.00;61586.06;5007896;28;20030;-92
2022/08/23 02:30:37;;;;;;;3.92;2.53;;;;;;;-144.47;100.00;61586.06;5003005;28;20038;-89
2022/08/23 02:33:04;;;;;;;7.72;3.10;;;;;;;-144.47;100.00;61586.06;5004263;28;20037;-90
2022/08/23 02:35:32;;;;;;;3.38;2.88;;;;;;;-144.47;100.00;61586.06;5002257;28;20033;-90
2022/08/23 02:38:02;;;;;;;5.22;3.25;;;;;;;-144.47;100.00;61586.06;5003582;28;20031;-89
2022/08/23 02:40:27;;;;;;;4.07;3.00;;;;;;;-144.47;100.00;61586.06;5004357;28;20029;-88
2022/08/23 02:42:53;;;;;;;6.28;3.35;;;;;;;-144.47;100.00;61586.06;5005841;28;20486;-89
2022/08/23 02:45:20;;;;;;;3.58;2.88;;;;;;;-144.47;100.00;61586.06;5003448;28;20048;-91
2022/08/23 02:47:46;;;;;;;4.00;2.60;;;;;;;-144.47;100.00;61586.06;4986234;28;20116;-92
2022/08/23 02:50:24;;;;;;;4.72;2.63;;;;;;;-144.47;100.00;61586.06;5000121;28;20467;-93
2022/08/23 02:52:51;;;;;;;4.00;3.53;;;;;;;-144.47;100.00;61586.06;5004175;28;20145;-90
2022/08/23 02:55:17;;;;;;;4.15;2.60;;;;;;;-144.47;100.00;61586.06;5007226;28;20026;-92
2022/08/23 02:57:43;;;;;;;4.97;2.88;;;;;;;-144.47;100.00;61586.06;5006937;28;20034;-90
2022/08/23 03:00:12;;;;;;;4.15;3.05;;;;;;;-144.47;100.00;61586.06;4988541;28;20080;-90
2022/08/23 03:02:39;;;;;;;3.75;2.65;;;;;;;-144.47;100.00;61586.06;5020094;28;20058;-90
2022/08/23 03:05:06;;;;;;;3.50;2.95;;;;;;;-144.47;100.00;61586.06;5028228;23;20041;-85
2022/08/23 03:07:31;;;;;;;3.22;2.90;;;;;;;20.94;100.00;61586.06;5028539;28;20101;-83
2022/08/23 03:09:58;;;;;;;5.05;3.15;;;;;;;20.79;100.00;61586.06;5030290;28;20374;-81
2022/08/23 03:12:25;;;;;;;5.28;3.28;;;;;;;20.79;100.00;61586.06;5025211;28;20041;-83
2022/08/23 03:14:53;;;;;;;3.78;3.08;;;;;;;20.94;100.00;61586.06;5040831;28;20034;-84
2022/08/23 03:17:19;;;;;;;3.60;3.30;;;;;;;20.56;100.00;61586.06;5029113;28;20064;-84
2022/08/23 03:19:45;;;;;;;4.35;3.53;;;;;;;-144.47;100.00;61586.06;5041611;28;20124;-84
2022/08/23 03:22:10;;;;;;;4.07;3.35;;;;;;;-144.47;100.00;61586.06;5028185;28;20112;-84
2022/08/23 03:24:36;;;;;;;6.75;4.53;;;;;;;-144.47;100.00;61586.06;5026604;28;20077;-84
2022/08/23 03:27:03;;;;;;;6.60;3.97;;;;;;;-144.47;100.00;61586.06;5031231;28;20038;-85
2022/08/23 03:29:30;;;;;;;7.78;3.60;;;;;;;-144.47;100.00;61586.06;5030740;28;20040;-84
2022/08/23 03:32:00;;;;;;;3.58;3.15;;;;;;;-144.47;100.00;61586.06;5026036;28;20037;-85
2022/08/23 03:34:27;;;;;;;5.68;3.50;;;;;;;20.78;100.00;61586.06;5026281;28;20045;-84
2022/08/23 03:36:53;;;;;;;4.47;3.90;;;;;;;187.31;100.00;61586.06;5023353;28;20034;-84
2022/08/23 03:39:19;;;;;;;6.18;3.53;;;;;;;20.94;100.00;61586.06;5029702;28;20028;-84
2022/08/23 03:41:44;;;;;;;4.20;3.25;;;;;;;21.26;100.00;61586.06;5012275;28;20033;-84
2022/08/23 03:44:10;;;;;;;3.95;3.42;;;;;;;20.75;100.00;61586.06;5027714;28;20454;-84
2022/08/23 03:46:39;;;;;;;4.07;3.67;;;;;;;20.94;100.00;61586.06;5030440;28;20033;-85
2022/08/23 03:49:06;;;;;;;7.22;4.07;;;;;;;20.79;100.00;61586.06;5023871;28;20045;-84
2022/08/23 03:51:41;;;;;;;4.60;3.85;;;;;;;20.94;100.00;61586.06;5025823;28;20021;-85
2022/08/23 03:54:08;;;;;;;4.78;4.05;;;;;;;20.72;100.00;61586.06;5024102;28;20041;-85
2022/08/23 03:56:37;;;;;;;5.18;3.50;;;;;;;21.26;100.00;61586.06;5026679;28;20036;-84
2022/08/23 03:59:12;;;;;;;4.10;3.60;;;;;;;21.26;100.00;61586.06;5028111;28;20112;-84
2022/08/23 04:01:37;;;;;;;5.00;3.72;;;;;;;21.26;100.00;61586.06;5044106;28;20036;-84
2022/08/23 04:04:03;;;;;;;3.85;3.55;;;;;;;20.94;100.00;61586.06;5028395;28;20033;-83
2022/08/23 04:06:30;;;;;;;4.60;4.20;;;;;;;21.26;100.00;61586.06;5029615;28;20120;-84
2022/08/23 04:08:56;;;;;;;4.78;3.90;;;;;;;-144.47;100.00;61586.06;5029354;28;20029;-84
2022/08/23 04:11:22;;;;;;;5.20;3.67;;;;;;;-144.47;100.00;61586.06;5027304;28;20037;-84
2022/08/23 04:13:56;;;;;;;6.13;3.70;;;;;;;-144.47;100.00;61586.06;5027657;28;20033;-82
2022/08/23 04:16:21;;;;;;;4.20;3.58;;;;;;;-144.47;100.00;61586.06;5030091;28;20044;-83
2022/08/23 04:18:48;;;;;;;3.33;3.00;;;;;;;-144.47;100.00;61586.06;5029682;28;20033;-84
2022/08/23 04:21:18;;;;;;;5.43;3.55;;;;;;;-144.47;100.00;61586.06;5024875;28;20441;-84
2022/08/23 04:23:44;;;;;;;6.18;3.55;;;;;;;20.94;100.00;61586.06;5025545;28;20437;-83
2022/08/23 04:26:10;;;;;;;3.78;3.20;;;;;;;20.82;100.00;61586.06;5029498;28;20079;-83
2022/08/23 04:28:37;;;;;;;6.28;2.90;;;;;;;21.26;100.00;61586.06;5030157;28;20025;-84
2022/08/23 04:31:03;;;;;;;9.02;3.60;;;;;;;20.60;100.00;61586.06;5029378;28;20048;-83
2022/08/23 04:33:31;;;;;;;9.05;2.60;;;;;;;-144.47;100.00;61586.06;5039219;28;20043;-84
2022/08/23 04:36:00;;;;;;;2.92;2.35;;;;;;;20.45;100.00;61586.06;5029543;28;20037;-84
2022/08/23 04:38:27;;;;;;;2.60;2.40;;;;;;;-144.47;100.00;61586.06;5027941;28;20041;-83
2022/08/23 04:43:45;;;;;;;4.43;3.05;;;;;;;-144.47;100.00;61586.06;5026025;28;20124;-85
2022/08/23 04:46:14;;;;;;;4.63;2.78;;;;;;;-144.47;100.00;61586.06;5031068;28;20061;-84
2022/08/23 04:48:41;;;;;;;5.78;3.38;;;;;;;-144.47;100.00;61586.06;5031967;28;20026;-84
2022/08/23 04:51:06;;;;;;;5.05;3.10;;;;;;;-144.47;100.00;61586.06;5030534;28;20537;-82
2022/08/23 04:53:35;;;;;;;3.00;2.80;;;;;;;-144.47;100.00;61586.06;5032740;28;20029;-82
2022/08/23 04:56:22;;;;;;;3.22;2.88;;;;;;;-144.47;100.00;61586.06;5030777;28;20059;-82
2022/08/23 04:58:48;;;;;;;5.88;3.08;;;;;;;-144.47;100.00;61586.06;5033551;28;20029;-82
2022/08/23 05:01:17;;;;;;;6.65;3.58;;;;;;;19.97;100.00;61586.06;5031934;28;20375;-82
2022/08/23 05:03:44;;;;;;;5.70;3.45;;;;;;;187.31;100.00;61586.06;5032397;28;20040;-82
2022/08/23 05:06:12;;;;;;;3.88;3.47;;;;;;;19.97;100.00;61586.06;5027967;28;20041;-83
2022/08/23 05:08:38;;;;;;;4.35;3.95;;;;;;;-144.47;100.00;61586.06;5033760;28;20511;-82
2022/08/23 05:11:07;;;;;;;3.80;3.40;;;;;;;19.61;100.00;61586.06;5031295;28;20065;-82
2022/08/23 05:13:34;;;;;;;5.45;3.47;;;;;;;-144.47;100.00;61586.06;5025971;28;20487;-82
2022/08/23 05:16:01;;;;;;;5.03;3.80;;;;;;;-144.47;100.00;61586.06;5030532;28;20755;-82
2022/08/23 05:18:32;;;;;;;5.85;3.20;;;;;;;-144.47;100.00;61586.06;5031473;28;20125;-83
2022/08/23 05:20:59;;;;;;;6.45;3.70;;;;;;;-144.47;100.00;61586.06;5018121;28;20033;-88
2022/08/23 05:23:25;;;;;;;6.72;3.88;;;;;;;19.97;100.00;61586.06;5023949;28;20389;-81
2022/08/23 05:25:57;;;;;;;6.20;3.80;;;;;;;19.39;100.00;61586.06;5029604;28;20026;-76
2022/08/23 05:28:33;;;;;;;4.20;3.80;;;;;;;187.31;100.00;61586.06;5030828;28;20064;-76
2022/08/23 05:31:23;;;;;;;4.28;3.72;;;;;;;-144.47;100.00;61586.06;5032791;28;20049;-76
2022/08/23 05:33:51;;;;;;;4.65;3.67;;;;;;;19.97;100.00;61586.06;5032442;28;20033;-78
2022/08/23 05:36:25;;;;;;;5.88;3.65;;;;;;;-144.47;100.00;61586.06;5014371;28;20104;-76
2022/08/23 05:38:52;;;;;;;12.95;4.78;;;;;;;19.97;100.00;61586.06;5032302;28;20469;-78
2022/08/23 05:41:18;;;;;;;7.45;4.68;;;;;;;-144.47;100.00;61586.06;5028018;28;20040;-78
2022/08/23 05:43:45;;;;;;;4.30;3.70;;;;;;;-144.47;100.00;61586.06;5031070;28;20111;-78
2022/08/23 05:46:17;;;;;;;3.50;3.20;;;;;;;19.97;100.00;61586.06;5028110;28;20033;-79
2022/08/23 05:48:50;;;;;;;3.78;3.47;;;;;;;-144.47;100.00;61586.06;5029780;28;20400;-81
2022/08/23 05:51:27;;;;;;;8.23;3.85;;;;;;;-144.47;100.00;61586.06;5027940;28;20596;-81
2022/08/23 05:53:56;;;;;;;18.85;4.65;;;;;;;-144.47;100.00;61586.06;5030048;28;20144;-81
2022/08/23 05:56:24;;;;;;;9.57;4.25;;;;;;;-144.47;100.00;61586.06;5031243;28;20025;-81
2022/08/23 05:58:51;;;;;;;18.30;5.88;;;;;;;-144.47;100.00;61586.06;5033077;28;20045;-81
2022/08/23 06:01:18;;;;;;;33.13;6.38;;;;;;;21.26;100.00;61586.06;5034137;28;20103;-81
2022/08/23 06:03:44;;;;;;;21.73;5.38;;;;;;;-144.47;100.00;61586.06;5052713;28;20057;-81
2022/08/23 06:06:11;;;;;;;10.93;4.80;;;;;;;20.29;100.00;61586.06;5049271;28;20052;-81
2022/08/23 06:08:38;;;;;;;8.07;4.45;;;;;;;-144.47;100.00;61586.06;5051657;28;20033;-81
2022/08/23 06:11:12;;;;;;;7.88;4.50;;;;;;;-144.47;100.00;61586.06;5038019;28;20033;-81
2022/08/23 06:13:43;;;;;;;6.88;4.28;;;;;;;-144.47;100.00;61586.06;5034988;28;20121;-81
2022/08/23 06:16:10;;;;;;;6.80;4.28;;;;;;;20.46;100.00;61586.06;5040115;28;20386;-82
2022/08/23 06:18:36;;;;;;;6.63;4.40;;;;;;;-144.47;100.00;61586.06;5027798;28;20040;-83
2022/08/23 06:21:21;;;;;;;5.00;4.22;;;;;;;-144.47;100.00;61586.06;5027043;28;20433;-83
2022/08/23 06:23:48;;;;;;;17.65;5.65;;;;;;;-144.47;100.00;61586.06;5023924;28;20045;-83
2022/08/23 06:26:19;;;;;;;7.78;4.45;;;;;;;20.89;100.00;61586.06;5031745;28;20026;-83
2022/08/23 06:28:47;;;;;;;9.00;4.30;;;;;;;-144.47;100.00;61586.06;5029178;28;20033;-82
2022/08/23 06:31:13;;;;;;;15.70;5.57;;;;;;;-144.47;100.00;61586.06;5029667;28;20120;-81
2022/08/23 06:33:52;;;;;;;10.50;4.70;;;;;;;-144.47;100.00;61586.06;5031422;28;20041;-81
2022/08/23 06:36:55;;;;;;;7.10;5.72;;;;;;;-144.47;100.00;61586.06;4991523;28;20399;-81
2022/08/23 06:39:55;;;;;;;7.70;5.65;;;;;;;-144.47;100.00;61586.06;5024068;28;20122;-82
2022/08/23 06:42:44;;;;;;;5.78;5.28;;;;;;;-144.47;100.00;61586.06;5022211;28;20043;-81
2022/08/23 06:45:10;;;;;;;10.57;5.65;;;;;;;-144.47;100.00;61586.06;5034461;28;20123;-82
2022/08/23 06:47:40;;;;;;;;;;;;;;;-144.47;100.00;61586.06;5026348;28;20422;-81
2022/08/23 06:50:05;;;;;;;6.45;5.15;;;;;;;-144.47;100.00;61586.06;5031526;28;19968;-81
2022/08/23 06:52:51;;;;;;;8.23;5.25;;;;;;;-144.47;100.00;61586.06;5025783;28;20056;-80
2022/08/23 06:55:43;;;;;;;6.18;5.57;;;;;;;-144.47;100.00;61586.06;5026173;28;20091;-80
2022/08/23 06:58:21;;;;;;;5.20;4.70;;;;;;;-144.47;100.00;61586.06;5030040;28;20040;-78
2022/08/23 07:01:33;;;;;;;7.20;5.50;;;;;;;-144.47;100.00;61586.06;5024956;28;20045;-80
2022/08/23 07:04:05;;;;;;;7.30;5.30;;;;;;;-144.47;100.00;61586.06;5028674;28;20045;-79
2022/08/23 07:07:04;;;;;;;5.63;5.13;;;;;;;-144.47;100.00;61586.06;5015895;28;20042;-81
2022/08/23 07:09:31;;;;;;;7.43;5.47;;;;;;;-144.47;100.00;61586.06;5027681;28;20041;-80
2022/08/23 07:11:58;;;;;;;6.07;4.88;;;;;;;-144.47;100.00;61586.06;5029048;28;20037;-80
2022/08/23 07:14:24;;;;;;;8.07;5.15;;;;;;;-144.47;100.00;61586.06;5027457;28;20064;-80
2022/08/23 07:16:55;;;;;;;5.50;4.57;;;;;;;-144.47;100.00;61586.06;5028874;28;20069;-79
2022/08/23 07:19:28;;;;;;;4.70;4.30;;;;;;;-144.47;100.00;61586.06;5030303;28;20404;-78
2022/08/23 07:21:54;;;;;;;7.03;4.95;;;;;;;-144.47;100.00;61586.06;5028067;28;20371;-80
2022/08/23 07:24:21;;;;;;;6.03;4.40;;;;;;;-144.47;100.00;61586.06;5022699;28;20513;-78
2022/08/23 07:26:50;;;;;;;6.22;4.80;;;;;;;-144.47;100.00;61586.06;5029641;28;20087;-79
2022/08/23 07:29:17;;;;;;;6.35;4.57;;;;;;;-144.47;100.00;61586.06;5028108;28;20512;-78
2022/08/23 07:31:48;;;;;;;5.38;4.32;;;;;;;104.25;100.00;61586.06;5023957;28;20034;-76
2022/08/23 07:34:13;;;;;;;;;;;;;;;-144.47;100.00;61586.06;5028398;28;20409;-78
2022/08/23 07:36:43;;;;;;;7.07;5.00;;;;;;;-144.47;100.00;61586.06;5027271;28;20023;-79
2022/08/23 07:39:10;;;;;;;7.00;4.70;;;;;;;-144.47;100.00;61586.06;5026904;28;20107;-78
2022/08/23 07:41:37;;;;;;;4.88;4.40;;;;;;;-144.47;100.00;61586.06;5024978;28;20092;-80
2022/08/23 07:44:07;;;;;;;4.45;3.95;;;;;;;-144.47;100.00;61586.06;5023043;28;20366;-78
2022/08/23 07:46:35;;;;;;;5.00;4.50;;;;;;;-144.47;100.00;61586.06;5028012;28;20056;-79
2022/08/23 07:49:03;;;;;;;5.75;4.10;;;;;;;-144.47;100.00;61586.06;5022980;28;20041;-80
2022/08/23 07:51:36;;;;;;;6.07;3.47;;;;;;;-144.47;100.00;61586.06;5025589;28;20087;-78
2022/08/23 07:54:06;;;;;;;5.50;3.55;;;;;;;104.25;100.00;61586.06;5027215;28;20103;-77
2022/08/23 07:56:35;;;;;;;4.80;3.50;;;;;;;104.25;100.00;61586.06;5027804;28;20033;-78
2022/08/23 07:59:02;;;;;;;11.20;3.30;;;;;;;-144.47;100.00;61586.06;5027343;28;20408;-78
2022/08/23 08:01:42;;;;;;;4.82;3.10;;;;;;;104.25;100.00;61586.06;5025264;28;20036;-79
2022/08/23 08:04:07;;;;;;;4.57;2.90;;;;;;;104.25;100.00;61586.06;5023778;28;20445;-78
2022/08/23 08:06:46;;;;;;;4.13;3.28;;;;;;;62.74;100.00;61586.06;5027136;28;20502;-78
2022/08/23 08:09:14;;;;;;;2.90;2.70;;;;;;;23.88;100.00;61586.06;5022761;28;20482;-76
2022/08/23 08:11:46;;;;;;;6.63;3.03;;;;;;;62.74;100.00;61586.06;5023687;28;20036;-76
2022/08/23 08:14:13;;;;;;;3.58;2.90;;;;;;;62.74;100.00;61586.06;5024991;28;20390;-76
2022/08/23 08:16:49;;;;;;;5.45;3.33;;;;;;;62.74;100.00;61586.06;5026781;28;20041;-78
2022/08/23 08:19:29;;;;;;;4.47;3.17;;;;;;;62.74;100.00;61586.06;5022397;28;20048;-77
2022/08/23 08:22:12;;;;;;;4.43;3.13;;;;;;;42.00;100.00;61586.06;5029834;28;20041;-77
2022/08/23 08:24:58;;;;;;;3.97;2.65;;;;;;;104.25;100.00;61586.06;5025099;28;20067;-79
2022/08/23 08:27:24;;;;;;;2.85;2.65;;;;;;;62.74;100.00;61586.06;5023016;28;20033;-79
2022/08/23 08:29:49;;;;;;;5.38;2.88;;;;;;;-144.47;100.00;61586.06;5026497;28;20044;-78
2022/08/23 08:32:16;;;;;;;3.70;2.78;;;;;;;24.61;100.00;61586.06;5024065;28;20038;-80
2022/08/23 08:34:42;;;;;;;3.17;2.92;;;;;;;-144.47;100.00;61586.06;5039417;28;20076;-76
2022/08/23 08:37:09;;;;;;;3.20;2.50;;;;;;;-144.47;100.00;61586.06;5027003;28;20037;-77
2022/08/23 08:39:35;;;;;;;4.28;2.72;;;;;;;-144.47;100.00;61586.06;5011999;28;20117;-76
2022/08/23 08:42:28;;;;;;;2.53;2.33;;;;;;;-144.47;100.00;61586.06;5026380;28;20076;-77
2022/08/23 08:44:58;;;;;;;3.72;2.47;;;;;;;-144.47;100.00;61586.06;5025911;28;20038;-74
2022/08/23 08:47:47;;;;;;;2.72;2.45;;;;;;;-144.47;100.00;61586.06;5024296;28;20022;-76
2022/08/23 08:50:22;;;;;;;2.40;2.20;;;;;;;-144.47;100.00;61586.06;5024665;28;20045;-76
2022/08/23 08:52:56;;;;;;;2.45;2.20;;;;;;;-144.47;100.00;61586.06;5024665;28;20752;-76
2022/08/23 08:55:43;;;;;;;2.97;2.40;;;;;;;-144.47;100.00;61586.06;5022551;28;20088;-77
2022/08/23 08:58:27;;;;;;;2.80;1.92;;;;;;;-144.47;100.00;61586.06;5027389;28;20029;-77
2022/08/23 09:00:54;;;;;;;2.90;1.88;;;;;;;-144.47;100.00;61586.06;5006681;28;20064;-75
2022/08/23 09:03:21;;;;;;;2.25;2.00;;;;;;;-144.47;100.00;61586.06;5022945;28;20052;-77
2022/08/23 09:06:17;;;;;;;2.08;1.85;;;;;;;-144.47;100.00;61586.06;5026758;28;20068;-77
2022/08/23 09:09:01;;;;;;;4.00;2.10;;;;;;;-144.47;100.00;61586.06;5039156;28;20037;-78
2022/08/23 09:11:40;;;;;;;4.53;1.83;;;;;;;-144.47;100.00;61586.06;5023735;28;20045;-79
2022/08/23 09:14:37;;;;;;;2.10;1.90;;;;;;;-144.47;100.00;61586.06;5019695;28;20088;-78
2022/08/23 09:17:08;;;;;;;2.80;2.25;;;;;;;-144.47;100.00;61586.06;5021388;28;20056;-77
2022/08/23 09:19:38;;;;;;;4.55;2.40;;;;;;;-144.47;100.00;61586.06;5028495;28;20029;-77
2022/08/23 09:22:12;;;;;;;1.97;1.70;;;;;;;-144.47;100.00;61586.06;5025619;28;20079;-78
2022/08/23 09:24:38;;;;;;;4.70;2.08;;;;;;;-144.47;100.00;61586.06;5026631;28;20499;-77
2022/08/23 09:27:19;;;;;;;;;;;;;;;-144.47;100.00;61586.06;5028897;28;20095;-79
2022/08/23 09:29:57;;;;;;;2.55;1.73;;;;;;;-144.47;100.00;61586.06;5028958;28;19921;-78
2022/08/23 09:32:36;;;;;;;3.75;1.60;;;;;;;-144.47;100.00;61586.06;5050002;28;20051;-78
2022/08/23 09:35:16;;;;;;;2.50;2.00;;;;;;;-144.47;100.00;61586.06;5027748;28;20116;-79
2022/08/23 09:37:53;;;;;;;3.13;1.90;;;;;;;-144.47;100.00;61586.06;5031580;28;20060;-78
2022/08/23 09:40:37;;;;;;;2.40;1.77;;;;;;;-144.47;100.00;61586.06;5033485;28;20551;-79
2022/08/23 09:43:16;;;;;;;4.15;1.77;;;;;;;-144.47;100.00;61586.06;5032572;28;20045;-79
2022/08/23 09:45:48;;;;;;;1.95;1.75;;;;;;;-144.47;100.00;61586.06;5031396;28;20049;-78
2022/08/23 09:48:30;;;;;;;2.75;1.77;;;;;;;-144.47;100.00;61586.06;5031834;28;20040;-80
2022/08/23 09:51:05;;;;;;;1.63;1.52;;;;;;;-144.47;100.00;61586.06;5028138;28;20034;-81
2022/08/23 09:53:32;;;;;;;2.20;1.70;;;;;;;-144.47;100.00;61586.06;5024198;28;20026;-79
2022/08/23 09:56:10;;;;;;;1.75;1.65;;;;;;;187.31;100.00;61586.06;5032228;28;20041;-79
2022/08/23 09:58:43;;;;;;;2.83;1.55;;;;;;;-144.47;100.00;61586.06;5025954;28;20063;-79
2022/08/23 10:01:22;;;;;;;2.13;1.58;;;;;;;-144.47;100.00;61586.06;5029572;28;20125;-79
2022/08/23 10:04:21;;;;;;;5.25;1.55;;;;;;;-144.47;100.00;61586.06;5029755;28;20056;-80
2022/08/23 10:06:47;;;;;;;1.70;1.60;;;;;;;-144.47;100.00;61586.06;5027816;28;20167;-79
2022/08/23 10:09:28;;;;;;;3.03;1.73;;;;;;;-144.47;100.00;61586.06;5027110;28;20030;-78
2022/08/23 10:11:56;;;;;;;3.40;1.73;;;;;;;187.31;100.00;61586.06;5024197;28;20029;-80
2022/08/23 10:14:23;;;;;;;2.83;1.38;;;;;;;-144.47;100.00;61586.06;5028322;28;20050;-80
2022/08/23 10:17:09;;;;;;;1.80;1.70;;;;;;;-144.47;100.00;61586.06;5022314;28;20469;-80
2022/08/23 10:19:43;;;;;;;1.52;1.38;;;;;;;-144.47;100.00;61586.06;5030518;28;20025;-80
2022/08/23 10:22:09;;;;;;;3.80;1.40;;;;;;;104.25;100.00;61586.06;5029809;28;20466;-81
2022/08/23 10:24:46;;;;;;;3.47;2.40;;;;;;;-144.47;100.00;61586.06;5031405;28;20040;-81
2022/08/23 10:30:18;;;;;;;4.47;2.13;;;;;;;-144.47;100.00;61586.06;5028467;28;20055;-81
2022/08/23 10:33:14;;;;;;;8.38;3.28;;;;;;;-144.47;100.00;61586.06;5024408;28;20038;-82
2022/08/23 10:36:07;;;;;;;3.40;1.83;;;;;;;-144.47;100.00;61586.06;5021887;28;20501;-82
2022/08/23 10:38:56;;;;;;;2.30;1.98;;;;;;;-144.47;100.00;61586.06;5041732;28;20377;-83
2022/08/23 10:41:32;;;;;;;2.97;0.98;;;;;;;-144.47;100.00;61586.06;5025920;28;20073;-83
2022/08/23 10:44:00;;;;;;;4.57;1.63;;;;;;;-144.47;100.00;61586.06;5024948;28;20202;-82
2022/08/23 10:46:29;;;;;;;2.28;1.20;;;;;;;27.71;100.00;61586.06;5042161;28;20042;-81
2022/08/23 10:48:58;;;;;;;2.75;1.20;;;;;;;104.25;100.00;61586.06;5042430;28;20063;-81
2022/08/23 10:51:31;;;;;;;1.10;1.00;;;;;;;42.00;100.00;61586.06;5026050;28;20040;-80
2022/08/23 10:54:11;;;;;;;1.30;1.08;;;;;;;42.00;100.00;61586.06;5024587;28;20061;-81
2022/08/23 10:56:38;;;;;;;1.10;1.00;;;;;;;31.63;100.00;61586.06;5025767;28;20053;-81
2022/08/23 10:59:24;;;;;;;2.95;1.38;;;;;;;42.00;100.00;61586.06;5028632;28;20025;-81
2022/08/23 11:02:24;;;;;;;1.83;1.30;;;;;;;42.00;100.00;61586.06;5026808;28;20937;-82
2022/08/23 11:05:06;;;;;;;1.00;0.80;;;;;;;42.00;100.00;61586.06;5017956;28;20049;-79
2022/08/23 11:07:39;;;;;;;1.90;0.93;;;;;;;42.00;100.00;61586.06;5041277;28;20136;-81
2022/08/23 11:10:27;;;;;;;5.47;1.10;;;;;;;-144.47;100.00;61586.06;5026861;28;20080;-80
2022/08/23 11:13:02;;;;;;;1.40;1.23;;;;;;;42.00;100.00;61586.06;5023658;28;20041;-81
2022/08/23 11:15:57;;;;;;;1.83;1.00;;;;;;;39.41;100.00;61586.06;5023558;28;20034;-78
2022/08/23 11:18:41;;;;;;;1.98;0.90;;;;;;;42.00;100.00;61586.06;4676490;28;10000662;-81
2022/08/23 11:21:32;;;;;;;1.23;1.00;;;;;;;62.74;100.00;61586.06;5025364;28;20063;-81
2022/08/23 11:24:02;;;;;;;2.15;0.93;;;;;;;42.00;100.00;61586.06;5021700;28;20058;-80
2022/08/23 11:26:30;;;;;;;1.23;0.80;;;;;;;42.00;100.00;61586.06;5027442;28;20029;-78
2022/08/23 11:29:05;;;;;;;2.90;1.27;;;;;;;42.00;100.00;61586.06;5041625;28;20033;-84
2022/08/23 11:31:48;;;;;;;1.25;0.95;;;;;;;62.74;100.00;61586.06;5028027;28;20041;-82
2022/08/23 11:34:15;;;;;;;1.92;1.00;;;;;;;42.00;100.00;61586.06;5026799;28;20263;-80
2022/08/23 11:37:20;;;;;;;1.42;0.98;;;;;;;42.00;100.00;61586.06;5027510;28;20037;-79
2022/08/23 11:39:57;;;;;;;1.05;0.90;;;;;;;-144.47;100.00;61586.06;5041485;28;20034;-80
2022/08/23 11:42:42;;;;;;;1.00;1.00;;;;;;;-144.47;100.00;61586.06;5025479;28;20156;-78
2022/08/23 11:45:45;;;;;;;1.33;0.75;;;;;;;28.85;100.00;61586.06;5012009;28;20068;-79
2022/08/23 11:48:18;;;;;;;1.95;1.00;;;;;;;-144.47;100.00;61586.06;5013547;28;20031;-78